Time;durP1;ratioP1;P1;durP2;ratioP2;P2;SDS_P1;SDS_P2;PMS_P1;PMS_P2;Temp;Humidity;BMP_temperature;BMP_pressure;BME280_temperature;BME280_humidity;BME280_pressure;Samples;Min_cycle;Max_cycle;Signal;HPM_P1;HPM_P2
2023/01/31 00:01:35;;;;;;;4.85;3.42;;;;;;;3.32;100.00;102038.88;6142493;23;20086;-74
2023/01/31 00:04:06;;;;;;;3.42;3.33;;;;;;;3.66;100.00;102102.00;6140572;23;20021;-73
2023/01/31 00:06:37;;;;;;;4.57;3.97;;;;;;;3.14;100.00;102035.41;6144665;23;20020;-74
2023/01/31 00:09:06;;;;;;;3.45;3.25;;;;;;;3.47;100.00;102080.41;6148070;23;20011;-74
2023/01/31 00:11:33;;;;;;;4.07;3.78;;;;;;;3.70;100.00;102116.72;6144613;23;20046;-73
2023/01/31 00:14:01;;;;;;;10.85;3.60;;;;;;;3.48;100.00;102078.66;6168775;23;20532;-73
2023/01/31 00:16:27;;;;;;;3.22;3.03;;;;;;;3.16;100.00;102020.72;6142412;23;20005;-73
2023/01/31 00:18:54;;;;;;;4.30;3.15;;;;;;;3.67;100.00;102108.03;6141872;23;20080;-74
2023/01/31 00:21:23;;;;;;;4.18;3.88;;;;;;;3.64;100.00;102113.25;6144064;23;20033;-74
2023/01/31 00:23:51;;;;;;;4.70;3.65;;;;;;;3.59;100.00;102101.16;6146733;23;20025;-73
2023/01/31 00:26:22;;;;;;;4.70;4.40;;;;;;;3.65;100.00;102113.25;6147634;23;20009;-73
2023/01/31 00:28:50;;;;;;;4.07;3.80;;;;;;;3.62;100.00;102104.59;6139079;23;20009;-74
2023/01/31 00:31:18;;;;;;;2.97;2.88;;;;;;;3.64;100.00;102118.44;6140624;23;20033;-74
2023/01/31 00:33:47;;;;;;;4.50;4.25;;;;;;;3.25;100.00;102061.38;6167411;23;20478;-73
2023/01/31 00:36:16;;;;;;;7.75;4.55;;;;;;;3.57;100.00;102118.47;6140800;23;20123;-73
2023/01/31 00:38:44;;;;;;;3.30;3.10;;;;;;;3.11;100.00;102035.44;6171444;23;20077;-74
2023/01/31 00:41:10;;;;;;;3.75;3.55;;;;;;;3.09;100.00;102044.06;6155478;23;20001;-73
2023/01/31 00:43:37;;;;;;;4.40;4.10;;;;;;;3.47;100.00;102106.34;6160001;23;20374;-74
2023/01/31 00:46:05;;;;;;;4.93;4.55;;;;;;;3.30;100.00;102110.66;6140833;23;20380;-74
2023/01/31 00:48:32;;;;;;;3.58;3.38;;;;;;;3.17;100.00;102082.13;6149423;23;20031;-74
2023/01/31 00:50:58;;;;;;;3.08;2.97;;;;;;;2.67;100.00;102009.47;6144500;23;20659;-74
2023/01/31 00:53:25;;;;;;;4.45;4.15;;;;;;;2.44;100.00;102012.84;6144032;23;20048;-74
2023/01/31 00:55:54;;;;;;;3.05;2.95;;;;;;;2.99;100.00;102105.44;6173054;23;20363;-74
2023/01/31 00:58:20;;;;;;;3.05;2.85;;;;;;;2.82;100.00;102083.78;6121343;23;20350;-74
2023/01/31 01:00:47;;;;;;;4.65;4.35;;;;;;;2.71;100.00;102056.13;6197761;23;20042;-74
2023/01/31 01:03:14;;;;;;;5.47;3.30;;;;;;;3.12;100.00;102114.94;6170552;23;20021;-74
2023/01/31 01:05:40;;;;;;;8.60;4.10;;;;;;;3.20;100.00;102112.38;6198028;23;20031;-73
2023/01/31 01:08:07;;;;;;;3.20;3.10;;;;;;;3.16;100.00;102114.09;6168941;23;20032;-74
2023/01/31 01:10:33;;;;;;;9.82;3.95;;;;;;;3.27;100.00;102108.03;6169027;23;20065;-73
2023/01/31 01:13:00;;;;;;;3.50;3.33;;;;;;;2.92;100.00;102044.03;6137169;23;20468;-74
2023/01/31 01:15:27;;;;;;;3.88;3.67;;;;;;;3.09;100.00;102063.09;6122122;23;20028;-74
2023/01/31 01:17:54;;;;;;;3.35;3.20;;;;;;;2.72;100.00;102007.72;6139088;23;20024;-74
2023/01/31 01:20:20;;;;;;;2.90;2.80;;;;;;;2.77;100.00;102032.78;5989076;23;20049;-74
2023/01/31 01:22:47;;;;;;;3.63;3.38;;;;;;;2.86;100.00;102059.59;6149417;23;20016;-74
2023/01/31 01:25:13;;;;;;;2.90;2.80;;;;;;;2.22;100.00;101910.91;6142440;23;20033;-74
2023/01/31 01:27:40;;;;;;;3.70;3.50;;;;;;;3.25;100.00;102074.34;6144664;23;20017;-73
2023/01/31 01:30:07;;;;;;;3.95;3.65;;;;;;;3.16;100.00;102079.50;6173099;23;20024;-74
2023/01/31 01:32:33;;;;;;;3.35;3.15;;;;;;;3.33;100.00;102076.94;6104308;23;20053;-73
2023/01/31 01:35:00;;;;;;;3.28;3.17;;;;;;;3.25;100.00;102060.47;6170285;23;20021;-72
2023/01/31 01:37:26;;;;;;;3.00;2.88;;;;;;;3.52;100.00;102104.59;6142643;23;20033;-74
2023/01/31 01:39:53;;;;;;;3.70;3.50;;;;;;;3.09;100.00;102037.16;6148637;23;20102;-74
2023/01/31 01:42:24;;;;;;;3.25;3.15;;;;;;;3.07;100.00;102033.69;6148777;23;20086;-75
2023/01/31 01:44:54;;;;;;;4.95;4.63;;;;;;;3.38;100.00;102091.63;6169378;23;20024;-74
2023/01/31 01:47:44;;;;;;;3.58;3.40;;;;;;;3.35;100.00;102085.59;6142158;23;20022;-74
2023/01/31 01:50:52;;;;;;;4.13;3.90;;;;;;;3.00;100.00;102027.63;6173293;23;20092;-74
2023/01/31 01:53:21;;;;;;;3.40;3.20;;;;;;;3.03;100.00;102033.66;6065180;23;20031;-73
2023/01/31 01:55:54;;;;;;;6.90;3.95;;;;;;;2.99;100.00;102025.06;6119569;23;20028;-73
2023/01/31 01:58:25;;;;;;;3.10;2.90;;;;;;;3.42;100.00;102082.13;6141190;23;20175;-73
2023/01/31 02:00:52;;;;;;;3.72;3.53;;;;;;;2.87;100.00;101999.97;6146385;23;20017;-74
2023/01/31 02:03:19;;;;;;;5.10;3.28;;;;;;;3.39;100.00;102087.31;6144781;23;20105;-72
2023/01/31 02:05:51;;;;;;;3.10;3.00;;;;;;;3.20;100.00;102044.94;6169216;23;20040;-73
2023/01/31 02:08:21;;;;;;;3.10;3.00;;;;;;;3.34;100.00;102065.69;6146037;23;20495;-73
2023/01/31 02:11:02;;;;;;;3.70;3.50;;;;;;;3.24;100.00;102056.19;6146492;23;20094;-73
2023/01/31 02:13:30;;;;;;;3.17;3.08;;;;;;;2.97;100.00;102021.59;6146012;23;20070;-74
2023/01/31 02:15:57;;;;;;;4.07;3.88;;;;;;;2.38;100.00;101930.78;6127493;23;20017;-74
2023/01/31 02:18:24;;;;;;;15.55;3.80;;;;;;;2.69;100.00;101980.09;6138241;23;20025;-74
2023/01/31 02:21:17;;;;;;;3.88;3.60;;;;;;;3.16;100.00;102075.19;6166267;23;20104;-74
2023/01/31 02:23:47;;;;;;;;;;;;;;;3.03;100.00;102076.06;6139215;23;20017;-74
2023/01/31 02:26:42;;;;;;;3.50;3.30;;;;;;;2.97;100.00;102083.81;6170726;23;19916;-74
2023/01/31 02:29:47;;;;;;;3.00;2.90;;;;;;;2.89;100.00;102072.56;6140928;23;20013;-74
2023/01/31 02:32:40;;;;;;;3.00;2.90;;;;;;;2.88;100.00;102091.56;6050978;23;20114;-74
2023/01/31 02:35:24;;;;;;;3.42;3.20;;;;;;;2.81;100.00;102095.91;6138148;23;20031;-74
2023/01/31 02:37:56;;;;;;;4.60;4.32;;;;;;;2.83;100.00;102095.88;6112094;23;20116;-74
2023/01/31 02:40:51;;;;;;;3.00;2.90;;;;;;;2.85;100.00;102095.03;6143694;23;20074;-74
2023/01/31 02:46:47;;;;;;;4.40;4.10;;;;;;;2.76;100.00;102123.50;6171876;23;20110;-73
2023/01/31 02:49:34;;;;;;;2.80;2.70;;;;;;;2.63;100.00;102070.78;6143185;23;20017;-73
2023/01/31 02:52:15;;;;;;;3.13;3.03;;;;;;;2.32;100.00;102015.41;6138319;23;20027;-76
2023/01/31 02:57:48;;;;;;;2.90;2.80;;;;;;;2.86;100.00;102094.16;6166530;23;20077;-73
2023/01/31 03:00:16;;;;;;;3.00;2.90;;;;;;;2.38;100.00;102011.09;6145451;23;20094;-74
2023/01/31 03:02:42;;;;;;;3.50;3.30;;;;;;;2.76;100.00;102072.53;6116345;23;20017;-74
2023/01/31 03:05:17;;;;;;;3.35;3.25;;;;;;;2.46;100.00;102039.63;6121013;23;20413;-74
2023/01/31 03:07:49;;;;;;;3.85;3.58;;;;;;;2.69;100.00;102083.75;6140590;23;20525;-73
2023/01/31 03:10:34;;;;;;;5.80;3.97;;;;;;;2.60;100.00;102078.53;6172271;23;20004;-73
2023/01/31 03:13:30;;;;;;;3.53;3.38;;;;;;;2.17;100.00;102042.97;6142525;23;20033;-73
2023/01/31 03:19:20;;;;;;;3.80;3.60;;;;;;;2.30;100.00;102077.56;6134463;23;20025;-74
2023/01/31 03:21:55;;;;;;;10.23;3.30;;;;;;;1.83;100.00;101997.09;6144954;23;20032;-73
2023/01/31 03:24:25;;;;;;;3.10;3.00;;;;;;;1.78;100.00;101989.28;6114590;23;20026;-73
2023/01/31 03:26:57;;;;;;;3.75;3.55;;;;;;;1.58;100.00;101963.31;6169305;23;20103;-73
2023/01/31 03:29:27;;;;;;;3.38;3.17;;;;;;;2.07;100.00;102045.53;6140868;23;20028;-74
2023/01/31 03:31:59;;;;;;;3.33;3.22;;;;;;;1.55;100.00;101952.97;6171386;23;20028;-74
2023/01/31 03:34:26;;;;;;;3.30;3.20;;;;;;;1.74;100.00;101991.00;6146142;23;20017;-73
2023/01/31 03:37:02;;;;;;;4.93;4.55;;;;;;;1.50;100.00;101958.09;6148752;23;20039;-74
2023/01/31 03:39:59;;;;;;;3.92;3.30;;;;;;;1.87;100.00;102024.72;6145565;23;20084;-74
2023/01/31 03:42:50;;;;;;;3.60;3.40;;;;;;;1.81;100.00;102027.28;6172551;23;20074;-73
2023/01/31 03:45:25;;;;;;;4.70;4.50;;;;;;;1.78;100.00;102039.34;6144415;23;20013;-73
2023/01/31 03:47:54;;;;;;;3.55;3.35;;;;;;;1.75;100.00;102023.78;6151081;23;20459;-73
2023/01/31 03:50:27;;;;;;;3.00;2.90;;;;;;;1.10;100.00;101926.84;6144588;23;20096;-74
2023/01/31 03:53:03;;;;;;;3.38;3.20;;;;;;;1.68;100.00;102041.84;6168367;23;20028;-74
2023/01/31 03:55:35;;;;;;;3.00;2.90;;;;;;;1.47;100.00;102008.97;6144489;23;20388;-74
2023/01/31 03:58:06;;;;;;;3.35;3.22;;;;;;;1.39;100.00;101999.41;6118864;23;21489;-74
2023/01/31 04:00:36;;;;;;;3.53;3.22;;;;;;;1.75;100.00;102030.69;6147730;23;20645;-74
2023/01/31 04:03:08;;;;;;;3.50;3.35;;;;;;;1.59;100.00;102002.13;6174968;23;20041;-73
2023/01/31 04:05:35;;;;;;;3.58;3.45;;;;;;;1.26;100.00;101945.88;6147524;23;20021;-74
2023/01/31 04:08:01;;;;;;;3.10;3.00;;;;;;;1.33;100.00;101957.13;6142758;23;20530;-74
2023/01/31 04:10:27;;;;;;;3.00;2.90;;;;;;;1.62;100.00;102008.19;6138156;23;20127;-74
2023/01/31 04:12:54;;;;;;;3.22;3.03;;;;;;;1.28;100.00;101954.50;6117400;23;20811;-74
2023/01/31 04:15:20;;;;;;;3.20;3.10;;;;;;;1.60;100.00;102015.94;6167533;23;20024;-74
2023/01/31 04:17:47;;;;;;;3.10;3.00;;;;;;;0.49;100.00;101815.28;6145546;23;20470;-73
2023/01/31 04:20:14;;;;;;;5.78;3.97;;;;;;;1.55;100.00;102015.91;6143576;23;20177;-74
2023/01/31 04:22:40;;;;;;;3.67;3.47;;;;;;;1.01;100.00;101889.72;6147159;23;20239;-74
2023/01/31 04:25:07;;;;;;;3.20;3.00;;;;;;;1.21;100.00;101924.31;6145478;23;20399;-74
2023/01/31 04:27:34;;;;;;;4.18;3.25;;;;;;;1.63;100.00;101999.56;6145275;23;20092;-73
2023/01/31 04:30:00;;;;;;;3.85;3.65;;;;;;;1.22;100.00;101901.88;6166861;23;20013;-74
2023/01/31 04:32:27;;;;;;;3.55;3.22;;;;;;;1.76;100.00;102003.94;6144220;23;20555;-74
2023/01/31 04:34:53;;;;;;;3.08;2.97;;;;;;;1.83;100.00;101985.00;6176868;23;20020;-74
2023/01/31 04:37:20;;;;;;;2.75;2.65;;;;;;;1.83;100.00;101990.19;6146443;23;20009;-73
2023/01/31 04:39:46;;;;;;;3.50;3.30;;;;;;;1.28;100.00;101879.50;6172865;23;20075;-74
2023/01/31 04:42:12;;;;;;;3.47;3.38;;;;;;;1.52;100.00;101904.63;6147474;23;20038;-74
2023/01/31 04:44:39;;;;;;;3.78;3.58;;;;;;;1.77;100.00;101933.22;6171992;23;20019;-73
2023/01/31 04:47:05;;;;;;;3.22;3.13;;;;;;;1.84;100.00;101940.13;6143945;23;20001;-73
2023/01/31 04:49:32;;;;;;;3.28;3.13;;;;;;;1.73;100.00;101926.31;6136964;23;20468;-72
2023/01/31 04:51:58;;;;;;;4.03;3.72;;;;;;;2.02;100.00;101975.59;6169930;23;20020;-75
2023/01/31 04:54:24;;;;;;;3.05;2.95;;;;;;;1.71;100.00;101918.53;6145312;23;20106;-73
2023/01/31 04:56:51;;;;;;;7.32;4.20;;;;;;;2.06;100.00;101972.16;6173474;23;20036;-72
2023/01/31 04:59:17;;;;;;;3.83;3.63;;;;;;;2.04;100.00;101967.81;6146574;23;20021;-72
2023/01/31 05:01:43;;;;;;;4.22;3.92;;;;;;;2.02;100.00;101965.22;6157223;23;20032;-73
2023/01/31 05:04:11;;;;;;;6.03;3.75;;;;;;;2.03;100.00;101966.97;6117663;23;20099;-74
2023/01/31 05:06:37;;;;;;;4.13;3.92;;;;;;;1.52;100.00;101881.34;6104278;23;20575;-73
2023/01/31 05:09:03;;;;;;;3.58;3.38;;;;;;;2.03;100.00;101948.00;6141483;23;20097;-73
2023/01/31 05:11:30;;;;;;;3.38;3.17;;;;;;;2.07;100.00;101927.28;6144171;23;20212;-73
2023/01/31 05:13:57;;;;;;;10.57;4.03;;;;;;;2.24;100.00;101952.34;6173852;23;20071;-73
2023/01/31 05:16:23;;;;;;;6.50;4.50;;;;;;;1.86;100.00;101870.25;6144992;23;20013;-73
2023/01/31 05:18:50;;;;;;;4.18;3.75;;;;;;;2.22;100.00;101923.00;6119133;23;20032;-72
2023/01/31 05:21:16;;;;;;;4.30;3.88;;;;;;;1.49;100.00;101774.44;6141673;23;20021;-73
2023/01/31 05:23:42;;;;;;;4.03;3.70;;;;;;;1.96;100.00;101846.97;6171521;23;20083;-70
2023/01/31 05:26:09;;;;;;;3.25;3.15;;;;;;;2.12;100.00;101863.41;6145610;23;20650;-74
2023/01/31 05:28:35;;;;;;;3.85;3.50;;;;;;;1.24;100.00;101714.00;6170373;23;20020;-72
2023/01/31 05:31:05;;;;;;;4.13;3.88;;;;;;;2.62;100.00;101931.69;6117011;23;20436;-72
2023/01/31 05:33:33;;;;;;;3.30;3.10;;;;;;;1.33;100.00;101708.88;6173931;23;20034;-71
2023/01/31 05:36:00;;;;;;;3.78;3.58;;;;;;;2.23;100.00;101871.22;6140429;23;20599;-72
2023/01/31 05:38:26;;;;;;;3.00;2.90;;;;;;;2.46;100.00;101896.25;6174545;23;20485;-72
2023/01/31 05:40:53;;;;;;;3.22;3.03;;;;;;;1.59;100.00;101760.66;6141156;23;20032;-70
2023/01/31 05:43:19;;;;;;;3.50;3.30;;;;;;;2.49;100.00;101923.03;6126238;23;20223;-72
2023/01/31 05:45:48;;;;;;;3.60;3.40;;;;;;;2.71;100.00;101936.88;6172527;23;20344;-75
2023/01/31 05:48:14;;;;;;;4.43;4.13;;;;;;;2.47;100.00;101879.88;6111995;23;20537;-72
2023/01/31 05:50:40;;;;;;;4.82;4.35;;;;;;;2.79;100.00;101929.97;6141731;23;20017;-72
2023/01/31 05:53:08;;;;;;;21.13;3.30;;;;;;;2.77;100.00;101943.81;6140559;23;20013;-72
2023/01/31 05:55:34;;;;;;;3.60;3.40;;;;;;;2.33;100.00;101859.13;6139738;23;20032;-71
2023/01/31 05:58:03;;;;;;;3.75;3.55;;;;;;;1.97;100.00;101821.97;6146869;23;20584;-72
2023/01/31 06:00:29;;;;;;;3.38;3.17;;;;;;;2.67;100.00;101935.16;6145401;23;20713;-73
2023/01/31 06:02:57;;;;;;;3.90;3.70;;;;;;;2.37;100.00;101894.53;6159919;23;20036;-73
2023/01/31 06:05:24;;;;;;;3.33;3.20;;;;;;;2.47;100.00;101908.38;6144016;23;20690;-73
2023/01/31 06:07:50;;;;;;;4.15;3.85;;;;;;;2.36;100.00;101878.09;6160040;23;20078;-73
2023/01/31 06:10:17;;;;;;;3.28;3.17;;;;;;;2.45;100.00;101881.59;6143717;23;20032;-73
2023/01/31 06:12:46;;;;;;;3.53;3.33;;;;;;;2.53;100.00;101872.09;6175460;23;20362;-72
2023/01/31 06:15:12;;;;;;;6.55;4.65;;;;;;;2.80;100.00;101895.38;6138799;23;20033;-73
2023/01/31 06:17:39;;;;;;;4.07;3.78;;;;;;;2.59;100.00;101848.75;6140050;23;20109;-73
2023/01/31 06:20:05;;;;;;;3.60;3.40;;;;;;;2.56;100.00;101830.63;6140303;23;20048;-73
2023/01/31 06:22:32;;;;;;;3.28;3.17;;;;;;;2.57;100.00;101830.63;6171473;23;20036;-73
2023/01/31 06:24:58;;;;;;;4.20;3.97;;;;;;;2.63;100.00;101840.13;6110662;23;20202;-72
2023/01/31 06:27:25;;;;;;;3.10;3.00;;;;;;;2.55;100.00;101831.50;6142616;23;20403;-72
2023/01/31 06:29:51;;;;;;;3.40;3.30;;;;;;;2.67;100.00;101835.81;6143108;23;21229;-73
2023/01/31 06:32:17;;;;;;;7.78;4.13;;;;;;;3.08;100.00;101890.16;6169921;23;20104;-73
2023/01/31 06:34:44;;;;;;;4.60;4.30;;;;;;;2.90;100.00;101877.25;6116018;23;20029;-72
2023/01/31 06:37:10;;;;;;;5.25;3.92;;;;;;;3.21;100.00;101922.16;6145466;23;20009;-73
2023/01/31 06:39:37;;;;;;;3.15;3.05;;;;;;;3.11;100.00;101915.25;6144072;23;20503;-73
2023/01/31 06:42:03;;;;;;;3.30;3.20;;;;;;;3.04;100.00;101929.94;6169739;23;20569;-73
2023/01/31 06:44:32;;;;;;;3.33;3.22;;;;;;;3.00;100.00;101923.88;6144470;23;20024;-73
2023/01/31 06:47:01;;;;;;;3.28;3.15;;;;;;;2.89;100.00;101915.28;6125097;23;20029;-72
2023/01/31 06:49:27;;;;;;;3.28;3.10;;;;;;;1.92;100.00;101754.63;6168241;23;20031;-74
2023/01/31 06:51:54;;;;;;;3.92;3.63;;;;;;;2.49;100.00;101867.78;6141477;23;20171;-73
2023/01/31 06:54:20;;;;;;;3.95;3.75;;;;;;;2.63;100.00;101860.84;6169882;23;20029;-73
2023/01/31 06:56:47;;;;;;;3.17;3.08;;;;;;;3.22;100.00;101944.63;6142397;23;20021;-72
2023/01/31 06:59:13;;;;;;;3.17;3.08;;;;;;;3.00;100.00;101912.66;6119634;23;20077;-75
2023/01/31 07:01:40;;;;;;;3.42;3.33;;;;;;;3.22;100.00;101952.41;6114152;23;20017;-71
2023/01/31 07:04:06;;;;;;;3.92;3.72;;;;;;;1.88;100.00;101719.25;6151822;23;20485;-73
2023/01/31 07:06:32;;;;;;;3.72;3.53;;;;;;;3.19;100.00;101929.94;6140194;23;20046;-72
2023/01/31 07:08:59;;;;;;;3.80;3.45;;;;;;;3.16;100.00;101923.88;6175560;23;20016;-71
2023/01/31 07:11:25;;;;;;;3.70;3.50;;;;;;;3.38;100.00;101945.44;6148396;23;20604;-74
2023/01/31 07:13:52;;;;;;;10.63;3.97;;;;;;;3.27;100.00;101936.81;6175226;23;20028;-73
2023/01/31 07:16:18;;;;;;;3.20;3.00;;;;;;;3.35;100.00;101956.72;6120736;23;20440;-72
2023/01/31 07:18:45;;;;;;;3.53;3.33;;;;;;;3.37;100.00;101956.72;6147589;23;20032;-72
2023/01/31 07:21:11;;;;;;;3.40;3.20;;;;;;;2.78;100.00;101860.81;6147404;23;20535;-73
2023/01/31 07:23:38;;;;;;;4.32;3.97;;;;;;;2.80;100.00;101848.72;6168479;23;20027;-72
2023/01/31 07:26:05;;;;;;;4.32;3.80;;;;;;;3.03;100.00;101891.03;6144109;23;20492;-71
2023/01/31 07:28:31;;;;;;;5.07;4.60;;;;;;;3.16;100.00;101923.88;6119931;23;20017;-71
2023/01/31 07:31:06;;;;;;;3.20;3.00;;;;;;;3.32;100.00;101945.47;6147165;23;20129;-72
2023/01/31 07:33:33;;;;;;;4.07;3.72;;;;;;;3.32;100.00;101950.66;6142000;23;20585;-71
2023/01/31 07:36:02;;;;;;;3.63;3.42;;;;;;;2.76;100.00;101846.16;6178568;23;20212;-71
2023/01/31 07:38:28;;;;;;;2.97;2.88;;;;;;;3.30;100.00;101942.00;6151897;23;20167;-71
2023/01/31 07:41:02;;;;;;;5.85;3.58;;;;;;;2.98;100.00;101891.91;6175901;23;20016;-69
2023/01/31 07:43:30;;;;;;;3.35;3.25;;;;;;;3.27;100.00;101927.31;6143521;23;20322;-71
2023/01/31 07:45:57;;;;;;;5.97;3.10;;;;;;;3.12;100.00;101885.84;6169885;23;20028;-71
2023/01/31 07:48:23;;;;;;;3.22;3.03;;;;;;;3.31;100.00;101915.22;6131789;23;20029;-71
2023/01/31 07:50:59;;;;;;;3.70;3.50;;;;;;;3.50;100.00;101926.41;6147116;23;20403;-72
2023/01/31 07:53:31;;;;;;;4.97;4.03;;;;;;;3.56;100.00;101929.81;6168684;23;20515;-72
2023/01/31 07:56:05;;;;;;;4.88;4.38;;;;;;;3.62;100.00;101946.25;6139710;23;20029;-73
2023/01/31 07:58:36;;;;;;;7.70;5.65;;;;;;;3.40;100.00;101884.88;6172324;23;20029;-72
2023/01/31 08:03:48;;;;;;;3.72;3.53;;;;;;;3.80;100.00;101928.00;6171873;23;20020;-72
2023/01/31 08:06:15;;;;;;;3.30;3.20;;;;;;;3.76;100.00;101928.91;6144917;23;20502;-71
2023/01/31 08:08:45;;;;;;;3.03;2.92;;;;;;;3.04;100.00;101795.09;6122386;23;20017;-71
2023/01/31 08:11:11;;;;;;;4.57;3.25;;;;;;;2.70;100.00;101727.78;6142357;23;20021;-71
2023/01/31 08:13:38;;;;;;;3.28;3.17;;;;;;;3.95;100.00;101924.50;6156849;23;20351;-71
2023/01/31 08:16:06;;;;;;;4.03;3.72;;;;;;;3.94;100.00;101913.22;6118805;23;20499;-71
2023/01/31 08:18:33;;;;;;;6.68;5.88;;;;;;;4.09;100.00;101932.19;6165849;23;20088;-72
2023/01/31 08:20:59;;;;;;;5.00;4.63;;;;;;;3.54;100.00;101838.13;6145701;23;20089;-72
2023/01/31 08:23:27;;;;;;;4.70;4.00;;;;;;;4.13;100.00;101923.50;6165723;23;20033;-71
2023/01/31 08:26:06;;;;;;;7.15;6.60;;;;;;;2.98;100.00;101705.22;6122981;23;20035;-70
2023/01/31 08:28:32;;;;;;;6.30;3.85;;;;;;;3.74;100.00;101829.38;6120301;23;20024;-70
2023/01/31 08:31:01;;;;;;;4.38;4.07;;;;;;;4.35;100.00;101917.34;6136806;23;20021;-71
2023/01/31 08:33:36;;;;;;;4.53;3.97;;;;;;;4.03;100.00;101856.91;6164589;23;20055;-71
2023/01/31 08:36:09;;;;;;;4.45;4.15;;;;;;;4.42;100.00;101922.47;6143182;23;20213;-72
2023/01/31 08:38:35;;;;;;;3.72;3.50;;;;;;;4.36;100.00;101907.78;6139560;23;20033;-71
2023/01/31 08:41:02;;;;;;;3.30;3.20;;;;;;;3.85;100.00;101813.72;6138168;23;20084;-71
2023/01/31 08:43:29;;;;;;;12.15;4.20;;;;;;;4.08;100.00;101847.34;6142959;23;20032;-71
2023/01/31 08:46:03;;;;;;;3.63;3.42;;;;;;;4.31;100.00;101881.84;6135781;23;20017;-71
2023/01/31 08:48:37;;;;;;;4.28;3.97;;;;;;;4.39;100.00;101899.97;6140847;23;20024;-72
2023/01/31 08:51:06;;;;;;;3.80;3.50;;;;;;;4.46;100.00;101909.44;6134632;23;20023;-72
2023/01/31 08:53:33;;;;;;;3.45;3.35;;;;;;;3.91;100.00;101819.75;6112785;23;20009;-71
2023/01/31 08:56:01;;;;;;;5.90;4.00;;;;;;;4.51;100.00;101912.00;6165111;23;20097;-71
2023/01/31 08:58:28;;;;;;;4.93;4.28;;;;;;;4.44;100.00;101903.41;6145366;23;20096;-71
2023/01/31 09:01:00;;;;;;;3.70;3.50;;;;;;;4.23;100.00;101859.38;6170034;23;20013;-72
2023/01/31 09:03:27;;;;;;;4.22;3.92;;;;;;;4.52;100.00;101908.53;6117078;23;20025;-71
2023/01/31 09:06:01;;;;;;;3.47;3.38;;;;;;;4.49;100.00;101885.16;6173298;23;20121;-71
2023/01/31 09:08:28;;;;;;;3.90;3.65;;;;;;;4.64;100.00;101912.78;6117916;23;20441;-73
2023/01/31 09:10:57;;;;;;;3.83;3.58;;;;;;;4.64;100.00;101924.03;6135848;23;20589;-72
2023/01/31 09:13:23;;;;;;;4.20;3.95;;;;;;;4.25;100.00;101848.09;6145064;23;20023;-72
2023/01/31 09:16:03;;;;;;;4.32;4.10;;;;;;;4.64;100.00;101887.63;6140270;23;20028;-72
2023/01/31 09:18:32;;;;;;;3.50;3.35;;;;;;;4.33;100.00;101828.13;6149788;23;20020;-71
2023/01/31 09:21:06;;;;;;;3.55;3.35;;;;;;;3.70;100.00;101693.53;6113668;23;20033;-72
2023/01/31 09:23:33;;;;;;;7.72;3.50;;;;;;;4.89;100.00;101890.00;6139844;23;20049;-71
2023/01/31 09:26:00;;;;;;;4.03;3.60;;;;;;;4.78;100.00;101888.38;6143054;23;20217;-70
2023/01/31 09:28:27;;;;;;;5.00;4.63;;;;;;;4.74;100.00;101878.88;6170736;23;20039;-72
2023/01/31 09:30:54;;;;;;;5.38;3.90;;;;;;;4.71;100.00;101862.44;6142547;23;20025;-71
2023/01/31 09:33:21;;;;;;;4.40;4.15;;;;;;;4.84;100.00;101871.84;6146162;23;20034;-72
2023/01/31 09:36:06;;;;;;;4.60;3.88;;;;;;;4.42;100.00;101813.31;6173488;23;20360;-74
2023/01/31 09:38:34;;;;;;;3.85;3.65;;;;;;;4.54;100.00;101831.41;6116273;23;20028;-71
2023/01/31 09:41:13;;;;;;;4.00;3.80;;;;;;;4.54;100.00;101823.59;6167781;23;20069;-70
2023/01/31 09:43:44;;;;;;;3.58;3.47;;;;;;;4.37;100.00;101797.75;6144363;23;20025;-70
2023/01/31 09:46:19;;;;;;;4.28;3.97;;;;;;;4.60;100.00;101836.53;6170811;23;20049;-72
2023/01/31 09:48:49;;;;;;;4.93;4.07;;;;;;;4.82;100.00;101871.00;6144904;23;20025;-71
2023/01/31 09:51:18;;;;;;;5.55;5.25;;;;;;;4.98;100.00;101872.59;6167148;23;20044;-70
2023/01/31 09:53:45;;;;;;;8.63;4.40;;;;;;;4.96;100.00;101876.94;6147540;23;20031;-72
2023/01/31 09:56:22;;;;;;;19.85;3.97;;;;;;;4.76;100.00;101822.53;6170129;23;20146;-71
2023/01/31 09:58:55;;;;;;;3.30;3.20;;;;;;;5.17;100.00;101877.59;6136668;23;20384;-71
2023/01/31 10:01:29;;;;;;;7.82;4.38;;;;;;;5.20;100.00;101877.56;6139576;23;20013;-73
2023/01/31 10:04:08;;;;;;;5.30;4.63;;;;;;;4.71;100.00;101800.91;6170551;23;20090;-71
2023/01/31 10:06:40;;;;;;;25.92;4.45;;;;;;;5.05;100.00;101834.38;6143494;23;20480;-69
2023/01/31 10:09:20;;;;;;;6.72;4.43;;;;;;;5.26;100.00;101876.66;6171259;23;20083;-72
2023/01/31 10:11:53;;;;;;;4.18;3.88;;;;;;;5.22;100.00;101848.94;6112291;23;20025;-73
2023/01/31 10:14:22;;;;;;;4.40;4.00;;;;;;;5.42;100.00;101872.97;6121850;23;20322;-70
2023/01/31 10:16:56;;;;;;;4.15;3.85;;;;;;;5.53;100.00;101870.25;6141369;23;20029;-71
2023/01/31 10:19:35;;;;;;;4.40;4.10;;;;;;;5.64;100.00;101850.13;6123599;23;20600;-71
2023/01/31 10:22:08;;;;;;;4.38;4.15;;;;;;;5.46;100.00;101832.16;6140037;23;20040;-73
2023/01/31 10:24:41;;;;;;;4.05;3.85;;;;;;;5.32;100.00;101804.56;6140048;23;20017;-71
2023/01/31 10:27:29;;;;;;;3.65;3.53;;;;;;;5.54;100.00;101822.50;6143107;23;20036;-72
2023/01/31 10:29:59;;;;;;;6.93;3.65;;;;;;;5.54;100.00;101836.38;6139948;23;20017;-73
2023/01/31 10:32:43;;;;;;;12.32;4.95;;;;;;;5.47;100.00;101824.34;6130133;23;20015;-71
2023/01/31 10:35:19;;;;;;;5.95;5.35;;;;;;;5.38;100.00;101812.28;6149206;23;20030;-73
2023/01/31 10:37:50;;;;;;;4.00;3.80;;;;;;;5.56;100.00;101802.50;6140429;23;20336;-73
2023/01/31 10:40:29;;;;;;;6.38;5.75;;;;;;;5.85;100.00;101841.16;6137157;23;20036;-73
2023/01/31 10:43:03;;;;;;;5.32;4.55;;;;;;;5.58;100.00;101783.38;6112220;23;20057;-73
2023/01/31 10:45:32;;;;;;;4.80;4.22;;;;;;;5.56;100.00;101766.91;6134253;23;20598;-71
2023/01/31 10:48:15;;;;;;;4.63;4.03;;;;;;;5.44;100.00;101728.03;6118821;23;20028;-72
2023/01/31 10:50:51;;;;;;;;;;;;;;;5.98;100.00;101814.09;6133315;23;20662;-73
2023/01/31 10:53:23;;;;;;;4.20;4.00;;;;;;;5.89;100.00;101816.78;6135464;23;20025;-71
2023/01/31 10:56:01;;;;;;;4.72;4.43;;;;;;;5.99;100.00;101812.34;6136607;23;20024;-74
2023/01/31 10:58:28;;;;;;;4.43;4.03;;;;;;;6.07;100.00;101809.63;6137677;23;20479;-74
2023/01/31 11:00:54;;;;;;;4.93;4.25;;;;;;;6.14;100.00;101811.25;6137938;23;20025;-73
2023/01/31 11:03:21;;;;;;;4.10;3.80;;;;;;;6.24;100.00;101805.00;6135459;23;20021;-72
2023/01/31 11:05:54;;;;;;;4.45;4.25;;;;;;;6.32;100.00;101794.47;6132304;23;20017;-73
2023/01/31 11:08:41;;;;;;;5.25;4.78;;;;;;;6.23;100.00;101795.44;6133958;23;20142;-72
2023/01/31 11:11:15;;;;;;;5.03;4.70;;;;;;;6.10;100.00;101789.59;6164796;23;20020;-72
2023/01/31 11:14:03;;;;;;;4.63;4.25;;;;;;;5.84;100.00;101730.03;6122370;23;20026;-73
2023/01/31 11:16:34;;;;;;;4.32;4.07;;;;;;;6.19;100.00;101775.53;6138783;23;20099;-73
2023/01/31 11:19:04;;;;;;;4.00;3.80;;;;;;;6.39;100.00;101791.72;6134875;23;20013;-73
2023/01/31 11:21:34;;;;;;;5.20;4.20;;;;;;;5.89;100.00;101738.63;6141701;23;20084;-73
2023/01/31 11:24:04;;;;;;;4.53;4.22;;;;;;;6.25;100.00;101791.06;6134679;23;20017;-72
2023/01/31 11:26:37;;;;;;;6.18;5.88;;;;;;;6.25;100.00;101779.78;6107115;23;20021;-72
2023/01/31 11:29:16;;;;;;;4.57;4.25;;;;;;;5.71;100.00;101708.56;6162066;23;20040;-73
2023/01/31 11:31:46;;;;;;;6.85;4.70;;;;;;;5.78;100.00;101725.78;6134833;23;20100;-73
2023/01/31 11:34:25;;;;;;;4.88;4.57;;;;;;;4.64;100.00;101554.00;6135848;23;20042;-72
2023/01/31 11:36:52;;;;;;;4.20;4.00;;;;;;;5.99;100.00;101771.53;6133103;23;20037;-72
2023/01/31 11:39:31;;;;;;;5.00;4.60;;;;;;;5.96;100.00;101773.31;6148330;23;20017;-73
2023/01/31 11:42:07;;;;;;;8.15;4.20;;;;;;;5.59;100.00;101730.44;6141702;23;21030;-72
2023/01/31 11:44:33;;;;;;;11.32;4.65;;;;;;;5.83;100.00;101748.28;6150586;23;20021;-73
2023/01/31 11:47:10;;;;;;;7.18;4.55;;;;;;;5.91;100.00;101754.25;6108143;23;20006;-73
2023/01/31 11:49:41;;;;;;;4.68;4.35;;;;;;;5.85;100.00;101757.78;6164037;23;20023;-73
2023/01/31 11:52:18;;;;;;;6.75;5.03;;;;;;;5.75;100.00;101756.22;6147434;23;20025;-72